Time;durP1;ratioP1;P1;durP2;ratioP2;P2;SDS_P1;SDS_P2;PMS_P1;PMS_P2;Temp;Humidity;BMP_temperature;BMP_pressure;BME280_temperature;BME280_humidity;BME280_pressure;Samples;Min_cycle;Max_cycle;Signal;HPM_P1;HPM_P2
2021/03/16 00:01:31;;;;;;;30.35;4.80;;;7.30;91.70;;;7.51;76.41;100893.56;5031704;28;20076;-81
2021/03/16 00:04:05;;;;;;;23.15;4.18;;;7.30;92.00;;;7.52;75.78;100903.38;5031896;28;20050;-81
2021/03/16 00:06:51;;;;;;;27.27;4.25;;;7.30;91.90;;;7.53;75.71;100905.09;5035724;28;20111;-81
2021/03/16 00:09:18;;;;;;;22.52;3.72;;;7.30;92.00;;;7.50;76.46;100906.25;5033116;28;20514;-81
2021/03/16 00:11:44;;;;;;;28.90;5.50;;;7.30;92.10;;;7.48;76.32;100919.06;5037315;28;20053;-81
2021/03/16 00:14:11;;;;;;;24.60;4.53;;;7.30;92.20;;;7.51;76.95;100909.81;5049509;28;20045;-81
2021/03/16 00:16:38;;;;;;;23.98;3.88;;;7.30;92.30;;;7.47;76.34;100908.44;5033248;28;20124;-81
2021/03/16 00:19:06;;;;;;;22.77;3.58;;;7.40;91.80;;;7.48;76.38;100918.22;5043793;28;20098;-81
2021/03/16 00:21:32;;;;;;;22.30;3.65;;;7.40;91.80;;;7.51;76.45;100909.81;5040179;28;20083;-81
2021/03/16 00:23:59;;;;;;;21.15;3.92;;;7.40;91.90;;;7.48;76.36;100919.06;5041564;28;20072;-81
2021/03/16 00:26:26;;;;;;;19.85;3.33;;;7.40;91.40;;;7.50;75.97;100918.94;5033293;28;20045;-81
2021/03/16 00:28:52;;;;;;;26.25;4.53;;;7.40;91.10;;;7.53;76.27;100921.34;5033430;28;20037;-81
2021/03/16 00:31:19;;;;;;;22.13;4.22;;;7.40;91.40;;;7.48;75.74;100926.34;5038206;28;20698;-81
2021/03/16 00:33:46;;;;;;;20.55;3.55;;;7.40;91.00;;;7.50;75.26;100932.47;5036511;28;20104;-81
2021/03/16 00:36:13;;;;;;;23.05;2.78;;;7.40;90.00;;;7.54;74.78;100933.84;5036206;28;20124;-81
2021/03/16 00:38:41;;;;;;;21.45;3.35;;;7.40;90.50;;;7.53;74.36;100934.88;5033028;28;20104;-81
2021/03/16 00:41:08;;;;;;;19.63;3.00;;;7.40;89.60;;;7.52;73.56;100939.44;5036967;28;20061;-81
2021/03/16 00:43:34;;;;;;;23.50;4.53;;;7.40;88.90;;;7.52;73.49;100941.28;5039203;28;20053;-81
2021/03/16 00:46:02;;;;;;;25.80;3.67;;;7.40;89.00;;;7.54;73.93;100944.69;5037105;28;20049;-81
2021/03/16 00:48:29;;;;;;;30.33;3.30;;;7.40;88.90;;;7.51;73.63;100951.28;5039496;28;20058;-81
2021/03/16 00:50:57;;;;;;;21.02;3.70;;;7.40;88.90;;;7.51;74.00;100945.03;5033329;28;20080;-81
2021/03/16 00:53:25;;;;;;;23.40;3.83;;;7.40;88.80;;;7.50;73.70;100955.00;5039176;28;20041;-81
2021/03/16 00:55:57;;;;;;;19.15;2.92;;;7.40;89.10;;;7.49;73.66;100955.16;5032682;28;20137;-81
2021/03/16 00:58:25;;;;;;;21.77;3.75;;;7.40;88.80;;;7.47;73.45;100954.47;5033939;28;20052;-81
2021/03/16 01:00:52;;;;;;;20.75;3.47;;;7.40;88.80;;;7.46;73.45;100955.44;5046666;28;20356;-81
2021/03/16 01:03:19;;;;;;;23.90;3.53;;;7.30;89.00;;;7.48;73.91;100958.84;5039501;28;20041;-81
2021/03/16 01:05:47;;;;;;;21.35;3.85;;;7.30;89.20;;;7.50;74.58;100959.56;5032109;28;20761;-81
2021/03/16 01:08:15;;;;;;;19.33;3.35;;;7.30;90.00;;;7.49;74.43;100958.72;5033020;28;20045;-81
2021/03/16 01:10:43;;;;;;;24.98;3.47;;;7.30;89.80;;;7.51;73.74;100964.81;5036392;28;20050;-81
2021/03/16 01:13:09;;;;;;;20.83;3.17;;;7.30;89.50;;;7.48;73.84;100967.81;5033017;28;20076;-81
2021/03/16 01:15:36;;;;;;;16.75;2.90;;;7.20;90.00;;;7.48;74.58;100966.97;5044660;28;20041;-82
2021/03/16 01:18:03;;;;;;;22.63;2.83;;;7.20;90.50;;;7.48;73.99;100972.41;5032488;28;20067;-81
2021/03/16 01:20:31;;;;;;;20.13;3.30;;;7.20;89.60;;;7.50;73.10;100976.69;5032612;28;20045;-81
2021/03/16 01:22:57;;;;;;;21.30;3.40;;;7.20;89.20;;;7.47;72.97;100965.28;5031863;28;20056;-81
2021/03/16 01:25:24;;;;;;;20.17;3.10;;;7.30;89.00;;;7.44;73.75;100967.31;5038747;28;20091;-81
2021/03/16 01:27:54;;;;;;;18.80;3.20;;;7.30;89.10;;;7.46;72.88;100966.28;5039317;28;20053;-81
2021/03/16 01:30:22;;;;;;;28.35;3.55;;;7.30;88.60;;;7.50;73.18;100971.25;5032884;28;20736;-81
2021/03/16 01:32:49;;;;;;;19.52;3.40;;;7.30;88.80;;;7.51;73.39;100972.09;5032579;28;20106;-81
2021/03/16 01:35:16;;;;;;;19.98;3.17;;;7.30;88.80;;;7.50;72.80;100975.81;5043252;28;20514;-81
2021/03/16 01:37:43;;;;;;;19.70;3.15;;;7.30;88.40;;;7.51;72.66;100977.53;5034278;28;20049;-81
2021/03/16 01:40:14;;;;;;;17.58;2.97;;;7.30;88.50;;;7.46;72.30;100977.97;5039325;28;20495;-81
2021/03/16 01:42:41;;;;;;;18.55;3.15;;;7.30;87.50;;;7.45;72.43;100976.28;5035110;28;20052;-81
2021/03/16 01:45:12;;;;;;;20.73;3.53;;;7.40;87.70;;;7.46;72.15;100974.41;5037861;28;20084;-81
2021/03/16 01:47:40;;;;;;;15.75;2.67;;;7.20;88.00;;;7.44;73.01;100980.84;5034235;28;20415;-81
2021/03/16 01:50:10;;;;;;;18.55;2.92;;;7.20;88.70;;;7.41;72.46;100967.59;5031654;28;20076;-81
2021/03/16 01:52:38;;;;;;;17.05;3.50;;;7.10;88.10;;;7.43;72.43;100981.84;5031579;28;20099;-81
2021/03/16 01:55:07;;;;;;;21.92;3.00;;;7.10;88.50;;;7.42;72.38;100977.44;5031741;28;20096;-81
2021/03/16 01:57:36;;;;;;;18.67;2.95;;;7.00;88.10;;;7.43;71.75;100984.53;5035351;28;20053;-81
2021/03/16 02:00:25;;;;;;;20.58;3.47;;;7.10;87.80;;;7.36;71.10;100979.88;5027700;28;20079;-81
2021/03/16 02:03:12;;;;;;;16.73;2.92;;;7.00;87.20;;;7.39;70.37;100979.59;5042914;28;20107;-81
2021/03/16 02:05:58;;;;;;;16.75;2.70;;;7.00;86.00;;;7.33;70.80;100986.47;5034857;28;20060;-81
2021/03/16 02:08:53;;;;;;;23.58;3.25;;;6.90;87.60;;;7.32;70.80;100979.34;5027245;28;20120;-81
2021/03/16 02:11:48;;;;;;;18.70;3.40;;;6.90;87.20;;;7.31;70.84;100983.06;5033410;28;20103;-81
2021/03/16 02:14:38;;;;;;;15.32;2.60;;;6.90;87.30;;;7.26;71.50;100984.53;5032060;28;20398;-81
2021/03/16 02:17:31;;;;;;;19.27;3.80;;;6.80;88.00;;;7.29;70.59;100984.19;5040872;28;20498;-81
2021/03/16 02:20:35;;;;;;;17.15;2.28;;;6.90;86.90;;;7.28;70.57;100982.50;5038437;28;20064;-81
2021/03/16 02:23:34;;;;;;;15.95;2.45;;;6.90;86.90;;;7.27;70.84;100987.06;5037260;28;20072;-81
2021/03/16 02:26:29;;;;;;;22.63;4.03;;;6.90;87.10;;;7.25;71.45;100989.06;5034841;28;20052;-81
2021/03/16 02:29:20;;;;;;;23.70;3.28;;;6.80;87.30;;;7.24;71.39;100985.50;5039371;28;20063;-81
2021/03/16 02:32:09;;;;;;;20.88;2.80;;;6.80;87.80;;;7.28;71.15;100988.78;5033025;28;20844;-81
2021/03/16 02:34:59;;;;;;;14.57;2.40;;;6.90;87.70;;;7.27;71.08;100987.06;5036385;28;20111;-81
2021/03/16 02:37:47;;;;;;;13.55;2.58;;;6.90;87.80;;;7.23;71.40;100985.66;5032542;28;20060;-81
2021/03/16 02:40:36;;;;;;;19.67;2.53;;;6.90;87.80;;;7.22;71.28;100992.94;5037986;28;20119;-81
2021/03/16 02:43:22;;;;;;;21.70;3.50;;;6.90;87.70;;;7.22;72.04;100994.81;5039528;28;20111;-81
2021/03/16 02:46:09;;;;;;;23.80;2.95;;;6.90;88.10;;;7.21;72.26;100998.50;5031434;28;20056;-81
2021/03/16 02:48:56;;;;;;;14.98;2.28;;;6.90;88.40;;;7.19;72.12;100995.09;5042529;28;20104;-81
2021/03/16 02:51:43;;;;;;;20.27;2.55;;;6.90;88.60;;;7.19;71.97;101000.50;5042169;28;20048;-81
2021/03/16 02:54:30;;;;;;;15.30;2.78;;;6.90;88.50;;;7.18;72.00;101010.50;5043293;28;20812;-81
2021/03/16 02:57:17;;;;;;;17.70;3.05;;;6.90;88.60;;;7.19;72.18;101006.75;5041733;28;20127;-81
2021/03/16 03:00:05;;;;;;;16.70;3.20;;;7.00;88.70;;;7.20;72.09;101013.06;5039439;28;20530;-81
2021/03/16 03:02:52;;;;;;;21.48;2.67;;;7.00;88.30;;;7.20;72.22;101013.06;5036249;28;20083;-81
2021/03/16 03:05:39;;;;;;;17.85;3.97;;;7.20;88.30;;;7.22;72.33;101016.47;5041534;28;20099;-81
2021/03/16 03:08:25;;;;;;;17.45;2.65;;;7.00;88.20;;;7.24;72.55;101027.97;5040854;28;20052;-81
2021/03/16 03:11:11;;;;;;;17.30;2.90;;;7.00;88.60;;;7.25;72.29;101016.13;5037079;28;20145;-81
2021/03/16 03:13:57;;;;;;;27.38;3.38;;;7.00;88.00;;;7.22;72.68;101011.03;5036475;28;20541;-81
2021/03/16 03:16:43;;;;;;;18.73;2.50;;;7.00;88.00;;;7.24;72.49;101026.13;5031219;28;20056;-81
2021/03/16 03:19:29;;;;;;;16.55;2.90;;;7.10;88.30;;;7.23;72.46;101026.25;5036696;28;20055;-81
2021/03/16 03:22:21;;;;;;;16.35;2.75;;;7.10;88.30;;;7.24;73.30;101036.94;5036204;28;20395;-81
2021/03/16 03:25:17;;;;;;;28.02;3.25;;;7.10;88.80;;;7.26;72.79;101034.09;5037462;28;20076;-81
2021/03/16 03:28:08;;;;;;;18.17;2.45;;;7.10;88.30;;;7.29;72.63;101033.81;5048658;28;20087;-81
2021/03/16 03:30:54;;;;;;;;;;;7.10;88.70;;;7.30;73.06;101045.47;5039865;28;20119;-81
2021/03/16 03:33:43;;;;;;;21.45;3.53;;;7.10;88.50;;;7.29;72.89;101039.22;5043386;28;19931;-81
2021/03/16 03:36:29;;;;;;;20.38;3.15;;;7.10;88.00;;;7.28;72.58;101047.50;5031183;28;20099;-81
2021/03/16 03:39:15;;;;;;;17.10;2.42;;;7.10;87.90;;;7.30;72.11;101046.31;5040788;28;20153;-81
2021/03/16 03:42:01;;;;;;;15.13;3.28;;;7.10;87.60;;;7.35;71.23;101056.69;5034658;28;20076;-81
2021/03/16 03:44:48;;;;;;;25.33;3.10;;;7.20;86.60;;;7.33;71.79;101056.00;5040235;28;20115;-81
2021/03/16 03:47:35;;;;;;;22.10;2.40;;;7.20;87.10;;;7.33;71.34;101065.00;5045512;28;20075;-81
2021/03/16 03:50:21;;;;;;;13.40;2.35;;;7.20;87.00;;;7.33;70.92;101056.00;5034864;28;20055;-81
2021/03/16 03:53:10;;;;;;;15.10;3.08;;;7.10;86.60;;;7.27;70.45;101052.03;5039129;28;20061;-81
2021/03/16 03:55:56;;;;;;;16.95;2.50;;;7.20;86.50;;;7.30;70.39;101065.28;5036520;28;20060;-81
2021/03/16 03:58:43;;;;;;;13.38;2.28;;;7.20;85.70;;;7.33;70.92;101056.00;5035330;28;20056;-81
2021/03/16 04:01:31;;;;;;;14.27;2.35;;;7.20;86.10;;;7.33;70.74;101064.13;5038893;28;20103;-81
2021/03/16 04:04:16;;;;;;;18.25;2.40;;;7.10;85.90;;;7.32;69.84;101054.31;5040996;28;20104;-81
2021/03/16 04:07:02;;;;;;;12.07;2.20;;;7.20;85.10;;;7.34;70.06;101063.97;5040466;28;20060;-81
2021/03/16 04:09:48;;;;;;;14.65;2.60;;;7.20;85.40;;;7.29;69.87;101063.59;5034358;28;20173;-81
2021/03/16 04:12:35;;;;;;;14.18;1.98;;;7.10;85.50;;;7.32;70.86;101070.56;5040329;28;20471;-81
2021/03/16 04:15:23;;;;;;;18.60;2.58;;;7.10;86.20;;;7.28;70.35;101061.88;5029508;28;20075;-81
2021/03/16 04:18:09;;;;;;;13.98;2.53;;;7.20;85.50;;;7.27;69.94;101068.28;5034311;28;20453;-81
2021/03/16 04:20:54;;;;;;;10.88;2.03;;;7.20;85.40;;;7.27;69.84;101070.97;5031105;28;20060;-81
2021/03/16 04:23:40;;;;;;;12.20;2.20;;;7.10;85.30;;;7.23;69.48;101072.28;5030119;28;20060;-81
2021/03/16 04:26:26;;;;;;;18.35;2.03;;;7.10;85.00;;;7.26;69.90;101079.28;5033522;28;20067;-81
2021/03/16 04:29:12;;;;;;;9.20;2.50;;;7.10;85.00;;;7.22;69.60;101081.44;5027719;28;20088;-81
2021/03/16 04:31:57;;;;;;;13.75;2.40;;;7.10;85.00;;;7.26;68.78;101090.94;5040140;28;20419;-81
2021/03/16 04:34:42;;;;;;;19.65;2.50;;;7.20;84.60;;;7.16;68.89;101092.81;5038187;28;20055;-81
2021/03/16 04:37:28;;;;;;;17.88;2.67;;;7.20;84.20;;;7.17;69.53;101091.84;5029386;28;20144;-81
2021/03/16 04:40:15;;;;;;;15.77;2.35;;;7.20;84.60;;;7.13;69.74;101093.13;5036024;28;20151;-81
2021/03/16 04:43:01;;;;;;;13.93;2.33;;;7.20;84.40;;;7.20;69.26;101096.97;5032165;28;20084;-81
2021/03/16 04:45:47;;;;;;;11.30;2.15;;;7.20;84.00;;;7.24;69.45;101096.50;5027556;28;20140;-81
2021/03/16 04:48:32;;;;;;;16.98;2.20;;;7.10;84.90;;;7.26;69.53;101099.06;5036408;28;20060;-81
2021/03/16 04:51:17;;;;;;;10.98;2.03;;;7.10;85.00;;;7.20;69.37;101105.94;5038828;28;20117;-81
2021/03/16 04:54:03;;;;;;;10.43;1.83;;;7.00;84.90;;;7.22;69.90;101108.50;5036818;28;20059;-81
2021/03/16 04:56:48;;;;;;;17.08;3.05;;;7.00;85.20;;;7.21;69.46;101112.19;5041943;28;20052;-81
2021/03/16 04:59:34;;;;;;;13.90;2.47;;;7.00;85.30;;;7.14;70.36;101116.47;5038461;28;20135;-81
2021/03/16 05:02:20;;;;;;;18.67;3.10;;;7.10;85.00;;;7.19;70.72;101119.59;5040090;28;20060;-81
2021/03/16 05:05:07;;;;;;;17.38;3.00;;;7.00;85.80;;;7.21;70.43;101112.19;5041947;28;20184;-81
2021/03/16 05:07:53;;;;;;;10.27;2.72;;;7.10;86.00;;;7.19;71.27;101104.22;5040730;28;20064;-81
2021/03/16 05:10:38;;;;;;;18.88;2.33;;;7.00;86.30;;;7.23;71.52;101119.19;5033644;28;20060;-81
2021/03/16 05:13:23;;;;;;;20.83;2.78;;;7.00;86.90;;;7.19;71.11;101123.16;5037463;28;20076;-81
2021/03/16 05:16:09;;;;;;;20.33;2.70;;;7.00;86.40;;;7.20;71.34;101127.59;5033654;28;20083;-81
2021/03/16 05:18:55;;;;;;;10.13;2.38;;;7.10;86.60;;;7.22;71.19;101128.28;5041062;28;20525;-81
2021/03/16 05:21:41;;;;;;;13.95;2.35;;;7.00;86.80;;;7.22;71.43;101132.84;5036225;28;20197;-81
2021/03/16 05:24:26;;;;;;;18.65;3.05;;;7.00;86.90;;;7.21;70.86;101128.44;5033362;28;20044;-81
2021/03/16 05:27:12;;;;;;;16.65;2.60;;;7.10;86.70;;;7.23;71.44;101131.84;5034343;28;20060;-81
2021/03/16 05:29:57;;;;;;;14.05;3.22;;;7.10;87.00;;;7.19;71.40;101135.84;5034565;28;20177;-81
2021/03/16 05:32:44;;;;;;;17.02;2.72;;;7.10;87.00;;;7.24;71.49;101130.84;5036634;28;20067;-81
2021/03/16 05:35:30;;;;;;;17.00;2.90;;;7.10;86.70;;;7.22;71.88;101138.28;5029394;28;20075;-81
2021/03/16 05:38:15;;;;;;;25.52;2.78;;;7.10;87.20;;;7.24;72.48;101133.56;5037167;28;20047;-81
2021/03/16 05:41:01;;;;;;;15.98;2.10;;;7.10;87.20;;;7.20;72.00;101141.13;5036300;28;20183;-81
2021/03/16 05:43:47;;;;;;;14.13;2.40;;;7.10;87.00;;;7.17;72.24;101145.97;5034226;28;20060;-81
2021/03/16 05:46:35;;;;;;;19.20;2.78;;;7.10;86.90;;;7.20;72.38;101149.25;5032734;28;20132;-81
2021/03/16 05:49:23;;;;;;;21.27;3.05;;;7.20;87.20;;;7.22;72.40;101157.22;5032184;28;20148;-81
2021/03/16 05:52:11;;;;;;;20.63;2.72;;;7.10;87.00;;;7.22;71.89;101159.94;5040958;28;20103;-81
2021/03/16 05:54:57;;;;;;;17.15;2.60;;;7.20;87.20;;;7.21;71.77;101161.75;5032635;28;20061;-81
2021/03/16 05:57:42;;;;;;;15.98;2.70;;;7.10;87.00;;;7.19;71.92;101165.63;5042229;28;20056;-81
2021/03/16 06:00:28;;;;;;;13.25;2.70;;;7.20;87.00;;;7.25;71.76;101167.75;5043583;28;20057;-81
2021/03/16 06:03:13;;;;;;;21.38;2.88;;;7.20;87.20;;;7.23;72.25;101170.63;5033987;28;20072;-81
2021/03/16 06:06:00;;;;;;;16.90;2.75;;;7.20;87.20;;;7.25;71.69;101173.16;5027401;28;20061;-81
2021/03/16 06:08:45;;;;;;;17.25;3.08;;;7.20;86.90;;;7.30;72.24;101175.44;5042868;28;20057;-81
2021/03/16 06:11:30;;;;;;;16.88;3.22;;;7.20;87.30;;;7.31;71.57;101177.13;5042974;28;20107;-81
2021/03/16 06:14:15;;;;;;;18.20;3.25;;;7.20;87.40;;;7.19;71.50;101181.88;5040269;28;20087;-82
2021/03/16 06:17:03;;;;;;;16.08;2.60;;;7.20;86.50;;;7.21;71.56;101183.41;5046568;28;20116;-82
2021/03/16 06:19:49;;;;;;;18.60;3.05;;;7.10;87.10;;;7.18;71.92;101177.47;5042395;28;20102;-86
2021/03/16 06:22:35;;;;;;;15.70;2.72;;;7.20;87.20;;;7.23;72.05;101183.28;5050662;28;20055;-83
2021/03/16 06:25:32;;;;;;;18.90;2.80;;;7.20;87.20;;;7.21;72.29;101182.56;5037294;28;20091;-85
2021/03/16 06:28:17;;;;;;;17.00;2.83;;;7.20;86.60;;;7.23;71.81;101192.28;5044621;28;20048;-85
2021/03/16 06:31:04;;;;;;;18.65;2.72;;;7.30;86.60;;;7.23;71.51;101191.41;5044655;28;20990;-85
2021/03/16 06:33:50;;;;;;;11.52;2.17;;;7.30;85.90;;;7.27;71.51;101178.44;5037898;28;20063;-85
2021/03/16 06:36:35;;;;;;;17.98;2.53;;;7.30;86.00;;;7.26;70.72;101187.56;5044419;28;20063;-84
2021/03/16 06:39:21;;;;;;;16.65;3.72;;;7.30;86.00;;;7.29;71.44;101189.97;5036922;28;20056;-84
2021/03/16 06:42:07;;;;;;;17.70;2.40;;;7.30;86.30;;;7.22;70.55;101187.00;5035333;28;20094;-85
2021/03/16 06:45:06;;;;;;;27.70;5.47;;;7.30;85.60;;;7.27;70.60;101191.97;5036884;28;20064;-84
2021/03/16 06:47:52;;;;;;;11.52;2.40;;;7.40;85.20;;;7.29;70.48;101190.84;5036477;28;20251;-84
2021/03/16 06:50:37;;;;;;;17.55;2.30;;;7.40;85.40;;;7.35;71.03;101195.66;5037303;28;20075;-84
2021/03/16 06:53:29;;;;;;;15.25;2.55;;;7.40;84.90;;;7.33;70.05;101207.63;5049600;28;20065;-84
2021/03/16 06:56:15;;;;;;;16.33;1.98;;;7.50;84.10;;;7.38;70.46;101195.34;5036340;28;20057;-84
2021/03/16 06:59:01;;;;;;;12.57;2.67;;;7.50;84.40;;;7.41;71.02;101196.94;5045940;28;20092;-84
2021/03/16 07:01:46;;;;;;;22.13;2.65;;;7.70;84.70;;;7.42;70.82;101195.91;5038191;28;20064;-83
2021/03/16 07:04:31;;;;;;;22.42;2.95;;;7.80;83.90;;;7.40;70.56;101197.91;5042937;28;20115;-82
2021/03/16 07:07:21;;;;;;;11.60;1.92;;;7.80;83.40;;;7.46;70.47;101196.47;5036273;28;20059;-83
2021/03/16 07:10:07;;;;;;;10.63;2.05;;;7.80;83.40;;;7.48;70.68;101200.72;5042240;28;20175;-84
2021/03/16 07:12:54;;;;;;;17.05;3.28;;;7.80;83.20;;;7.53;71.10;101205.72;5035969;28;20513;-83
2021/03/16 07:15:40;;;;;;;21.40;2.67;;;7.80;84.20;;;7.53;70.29;101203.84;5031725;28;20068;-83
2021/03/16 07:18:27;;;;;;;15.57;2.33;;;7.80;84.30;;;7.49;70.66;101210.56;5034108;28;20056;-82
2021/03/16 07:21:24;;;;;;;11.15;2.40;;;7.80;84.20;;;7.50;71.57;101211.41;5036103;28;20410;-82
2021/03/16 07:24:12;;;;;;;12.90;2.53;;;7.80;84.80;;;7.55;71.17;101206.44;5039462;28;20075;-82
2021/03/16 07:26:58;;;;;;;20.67;2.92;;;7.70;85.20;;;7.56;71.76;101208.16;5029333;28;20111;-83
2021/03/16 07:29:46;;;;;;;17.20;3.58;;;7.70;85.40;;;7.59;71.96;101213.25;5035242;28;20056;-82
2021/03/16 07:32:33;;;;;;;12.70;3.20;;;7.70;85.40;;;7.61;71.89;101211.25;5029714;28;20072;-82
2021/03/16 07:35:19;;;;;;;17.55;4.05;;;7.80;85.80;;;7.55;72.42;101212.69;5032158;28;20071;-83
2021/03/16 07:38:05;;;;;;;22.58;3.70;;;7.80;85.40;;;7.58;71.82;101228.66;5033711;28;20099;-83
2021/03/16 07:40:52;;;;;;;18.25;3.03;;;7.90;85.40;;;7.61;72.07;101222.06;5033360;28;20052;-83
2021/03/16 07:43:39;;;;;;;21.88;3.50;;;8.00;85.00;;;7.62;71.79;101223.81;5032272;28;20056;-83
2021/03/16 07:46:41;;;;;;;19.67;3.15;;;8.00;85.10;;;7.54;71.67;101220.94;5033589;28;20514;-83
2021/03/16 07:49:31;;;;;;;;;;;8.00;84.30;;;7.58;71.72;101222.41;5031607;28;20454;-82
2021/03/16 07:52:20;;;;;;;14.50;3.22;;;8.00;84.60;;;7.62;71.90;101229.22;5037452;28;19971;-83
2021/03/16 07:55:07;;;;;;;19.13;3.53;;;8.00;84.80;;;7.63;72.22;101228.19;5032975;28;20082;-83
2021/03/16 07:57:52;;;;;;;9.90;2.92;;;8.10;84.70;;;7.69;72.44;101224.94;5032429;28;20052;-83
2021/03/16 08:00:39;;;;;;;21.75;3.40;;;8.20;84.60;;;7.70;71.76;101226.63;5033390;28;20056;-83
2021/03/16 08:03:25;;;;;;;14.15;2.75;;;8.30;83.80;;;7.77;71.67;101222.31;5020487;28;20538;-83
2021/03/16 08:06:25;;;;;;;14.48;2.50;;;8.50;83.30;;;7.75;71.07;101228.88;5032884;28;20076;-83
2021/03/16 08:09:22;;;;;;;15.02;2.38;;;8.70;82.10;;;7.77;71.12;101233.16;5030494;28;20578;-83
2021/03/16 08:12:19;;;;;;;9.82;2.08;;;9.10;81.40;;;7.80;71.63;101237.41;5039340;28;20212;-83
2021/03/16 08:15:13;;;;;;;15.35;2.60;;;9.00;80.80;;;7.89;71.63;101243.81;5031204;28;20076;-83
2021/03/16 08:17:59;;;;;;;14.30;2.13;;;9.00;80.70;;;7.94;71.28;101242.34;5035352;28;20088;-82
2021/03/16 08:20:46;;;;;;;18.42;3.15;;;9.00;79.70;;;8.00;70.95;101249.88;5026157;28;20104;-82
2021/03/16 08:23:33;;;;;;;16.73;2.97;;;9.00;80.70;;;8.04;69.90;101245.00;5036632;28;20088;-81
2021/03/16 08:26:19;;;;;;;13.38;2.40;;;9.00;80.10;;;8.02;69.13;101244.31;5032429;28;20060;-82
2021/03/16 08:29:04;;;;;;;13.38;2.10;;;8.90;79.50;;;7.99;69.03;101252.72;5032636;28;20164;-82
2021/03/16 08:31:52;;;;;;;11.52;2.08;;;8.80;79.10;;;8.03;69.41;101248.72;5032922;28;20087;-82
2021/03/16 08:34:37;;;;;;;14.73;2.30;;;8.90;79.60;;;8.09;69.75;101249.97;5032675;28;20056;-82
2021/03/16 08:37:25;;;;;;;8.23;2.22;;;8.80;80.10;;;8.06;69.25;101253.84;5033839;28;20175;-83
2021/03/16 08:40:21;;;;;;;12.00;2.00;;;8.90;80.20;;;8.07;69.51;101249.28;5033291;28;20107;-83
2021/03/16 08:43:10;;;;;;;9.93;2.10;;;8.80;80.40;;;7.97;69.66;101254.75;5033719;28;20131;-82
2021/03/16 08:45:56;;;;;;;20.13;2.20;;;8.80;80.30;;;8.05;70.36;101256.69;5042105;28;20060;-84
2021/03/16 08:48:43;;;;;;;11.93;1.67;;;8.80;80.70;;;8.10;69.80;101254.41;5039523;28;20125;-84
2021/03/16 08:51:30;;;;;;;9.02;1.90;;;8.80;80.20;;;8.12;69.03;101250.53;5047195;28;20453;-84
2021/03/16 08:54:25;;;;;;;13.60;1.90;;;8.80;79.60;;;8.14;69.26;101259.38;5035548;28;20095;-84
2021/03/16 08:57:10;;;;;;;10.38;1.63;;;8.90;79.70;;;8.15;67.51;101252.94;5039779;28;20126;-83
2021/03/16 08:59:58;;;;;;;9.65;1.70;;;9.00;79.00;;;8.16;68.09;101257.34;5031388;28;20480;-84
2021/03/16 09:02:43;;;;;;;13.25;2.10;;;9.00;77.80;;;8.21;67.67;101256.91;5038321;28;20522;-84
2021/03/16 09:05:29;;;;;;;12.63;1.83;;;9.10;77.90;;;8.19;67.93;101265.19;5038586;28;20100;-83
2021/03/16 09:08:14;;;;;;;17.63;2.60;;;9.20;78.00;;;8.26;68.04;101264.59;5032579;28;20059;-84
2021/03/16 09:11:02;;;;;;;11.25;1.60;;;9.20;77.70;;;8.25;67.79;101262.91;5044008;28;20059;-84
2021/03/16 09:13:47;;;;;;;8.68;1.42;;;9.30;77.80;;;8.30;67.78;101260.56;5033855;28;20538;-84
2021/03/16 09:16:33;;;;;;;9.13;1.63;;;9.30;76.80;;;8.33;68.03;101254.84;5036864;28;20139;-84
2021/03/16 09:19:20;;;;;;;10.38;1.85;;;9.40;76.90;;;8.30;67.41;101260.56;5029234;28;20131;-84
2021/03/16 09:22:10;;;;;;;13.40;2.00;;;9.40;76.40;;;8.32;67.31;101255.84;5032702;28;20526;-84
2021/03/16 09:24:57;;;;;;;12.60;1.80;;;9.40;76.60;;;8.31;67.82;101259.56;5032585;28;20096;-84
2021/03/16 09:27:43;;;;;;;14.23;2.53;;;9.20;77.30;;;8.34;67.51;101257.41;5045972;28;20051;-83
2021/03/16 09:30:31;;;;;;;9.00;1.95;;;9.20;77.90;;;8.37;68.04;101251.66;5032487;28;20243;-85
2021/03/16 09:33:20;;;;;;;9.50;1.83;;;9.10;78.30;;;8.37;67.74;101253.53;5032712;28;20111;-83
2021/03/16 09:36:06;;;;;;;12.38;2.40;;;9.20;78.30;;;8.41;67.75;101249.50;5040178;28;20056;-83
2021/03/16 09:38:55;;;;;;;12.02;1.80;;;9.20;77.00;;;8.38;67.27;101257.97;5033505;28;20174;-84
2021/03/16 09:41:54;;;;;;;13.13;2.13;;;9.20;77.60;;;8.38;67.87;101263.41;5030790;28;20050;-84
2021/03/16 09:44:34;;;;;;;10.25;1.90;;;9.20;77.80;;;8.40;68.13;101259.50;5031632;28;20057;-83
2021/03/16 09:47:02;;;;;;;8.88;2.17;;;9.20;78.30;;;8.45;68.04;101260.94;5040698;28;20091;-84
2021/03/16 09:49:32;;;;;;;12.32;2.33;;;9.20;79.00;;;8.45;68.00;101259.06;5034273;28;20042;-83
2021/03/16 09:52:08;;;;;;;11.73;2.40;;;9.20;79.20;;;8.48;68.05;101256.06;5034540;28;20042;-91
2021/03/16 09:54:38;;;;;;;8.30;2.28;;;9.20;79.20;;;8.45;68.47;101259.06;5046106;28;20036;-83
2021/03/16 09:57:14;;;;;;;10.90;2.47;;;9.30;79.10;;;8.48;67.68;101260.66;5034687;28;20495;-83
2021/03/16 09:59:44;;;;;;;10.20;2.88;;;9.40;78.20;;;8.50;67.66;101255.91;5031483;28;20511;-84
2021/03/16 10:02:12;;;;;;;9.93;2.65;;;9.50;76.90;;;8.51;67.53;101260.31;5031822;28;20041;-84
2021/03/16 10:04:47;;;;;;;8.98;2.72;;;9.50;76.90;;;8.53;67.93;101261.03;5028965;28;20040;-84
2021/03/16 10:07:25;;;;;;;9.65;2.70;;;9.60;77.40;;;8.54;68.63;101269.00;5035537;28;20103;-84
2021/03/16 10:09:53;;;;;;;14.05;2.95;;;9.60;77.30;;;8.54;68.38;101255.44;5030971;28;20686;-84
2021/03/16 10:12:22;;;;;;;11.20;2.53;;;9.70;77.40;;;8.59;68.03;101264.00;5032826;28;20033;-84
2021/03/16 10:14:52;;;;;;;9.55;2.25;;;9.70;76.50;;;8.62;67.69;101260.13;5029359;28;20080;-84
2021/03/16 10:17:26;;;;;;;12.90;2.33;;;9.80;76.20;;;8.58;67.13;101259.56;5039282;28;20473;-84
2021/03/16 10:19:54;;;;;;;8.90;2.30;;;9.80;75.00;;;8.65;67.51;101258.97;5039234;28;20789;-83
2021/03/16 10:22:26;;;;;;;8.65;1.73;;;9.90;74.70;;;8.68;66.51;101261.34;5038120;28;20095;-84
2021/03/16 10:24:58;;;;;;;8.45;1.65;;;9.80;74.20;;;8.69;66.22;101249.50;5033711;28;20046;-84
2021/03/16 10:27:27;;;;;;;9.70;1.70;;;9.80;73.50;;;8.69;65.79;101249.50;5034932;28;20045;-84
2021/03/16 10:29:56;;;;;;;6.43;2.22;;;9.80;74.50;;;8.68;67.08;101254.09;5046834;28;20741;-85
2021/03/16 10:32:23;;;;;;;8.68;1.77;;;9.80;75.20;;;8.69;66.74;101249.50;5034679;28;20045;-85
2021/03/16 10:34:50;;;;;;;10.00;2.00;;;9.90;75.20;;;8.69;66.22;101255.78;5029185;28;20080;-84
2021/03/16 10:37:19;;;;;;;8.65;1.73;;;10.00;73.20;;;8.74;66.49;101252.63;5027363;28;20073;-84
2021/03/16 10:39:46;;;;;;;8.98;1.48;;;10.00;73.30;;;8.75;66.12;101244.31;5032382;28;20042;-83
2021/03/16 10:42:16;;;;;;;8.35;1.92;;;10.00;73.60;;;8.75;64.56;101246.16;5030153;28;20034;-88
2021/03/16 10:44:43;;;;;;;6.72;1.27;;;9.90;72.40;;;8.75;63.49;101254.31;5028251;28;20054;-84
2021/03/16 10:47:11;;;;;;;7.45;1.42;;;10.00;71.70;;;8.74;64.20;101249.91;5029101;28;20045;-84
2021/03/16 10:49:38;;;;;;;5.85;1.20;;;10.00;72.40;;;8.69;64.47;101244.09;5036782;28;20400;-84
2021/03/16 10:52:06;;;;;;;12.07;1.52;;;10.10;72.50;;;8.66;64.78;101241.66;5029786;28;20064;-84
2021/03/16 10:54:35;;;;;;;6.50;1.17;;;10.20;72.40;;;8.66;65.41;101252.53;5032987;28;20045;-85
2021/03/16 10:57:03;;;;;;;6.53;1.17;;;10.20;72.50;;;8.66;65.98;101245.22;5025637;28;20162;-85
2021/03/16 10:59:29;;;;;;;10.35;1.55;;;10.20;72.80;;;8.75;65.97;101232.59;5031321;28;20052;-86
2021/03/16 11:01:56;;;;;;;10.25;1.73;;;10.30;73.10;;;8.73;66.42;101240.03;5042957;28;20037;-85
2021/03/16 11:04:24;;;;;;;8.85;2.00;;;10.30;72.80;;;8.73;66.00;101232.75;5039132;28;20127;-89
2021/03/16 11:06:51;;;;;;;9.43;2.08;;;10.40;72.20;;;8.71;65.51;101236.63;5041590;28;20037;-89
2021/03/16 11:09:18;;;;;;;9.77;2.40;;;10.40;72.00;;;8.78;66.25;101227.72;5052241;28;20059;-89
2021/03/16 11:11:44;;;;;;;10.50;2.58;;;10.40;72.80;;;8.80;66.78;101233.00;5034344;28;20045;-89
2021/03/16 11:14:12;;;;;;;7.03;1.95;;;10.40;73.70;;;8.84;67.84;101234.38;5035241;28;20112;-89
2021/03/16 11:16:38;;;;;;;12.23;3.47;;;10.40;74.00;;;8.84;67.06;101234.38;5036827;28;20049;-89
2021/03/16 11:19:05;;;;;;;13.40;4.18;;;10.40;73.60;;;8.77;66.48;101236.84;5043824;28;20136;-89